Time,TemperatureF,DewpointF,PressureIn,WindDirection,WindDirectionDegrees,WindSpeedMPH,WindSpeedGustMPH,Humidity,HourlyPrecipIn,Conditions,Clouds,dailyrainin,SolarRadiationWatts/m^2,SoftwareType,DateUTC
2013-10-08 00:00:00,51.0,44.0,-100.00,SSW,205,2.0,5.0,77,-99.99,,,0.00,0.120000,,2013-10-08 07:00:00,
2013-10-08 00:42:00,51.0,44.0,-100.00,SSW,205,2.0,5.0,77,-99.99,,,0.00,0.120000,,2013-10-08 07:42:00,
2013-10-08 00:52:00,51.0,44.0,-100.00,SSW,205,2.0,5.0,77,-99.99,,,0.00,0.120000,,2013-10-08 07:52:00,
2013-10-08 01:00:00,49.0,45.0,-100.00,North,353,2.0,4.0,86,-99.99,,,0.00,0.120000,,2013-10-08 08:00:00,
2013-10-08 01:42:00,49.0,45.0,-100.00,North,353,2.0,4.0,86,-99.99,,,0.00,0.120000,,2013-10-08 08:42:00,
2013-10-08 01:52:00,49.0,45.0,-100.00,North,353,2.0,4.0,86,-99.99,,,0.00,0.120000,,2013-10-08 08:52:00,
2013-10-08 02:00:00,49.0,44.0,-100.00,NW,312,3.0,5.0,82,-99.99,,,0.00,0.120000,,2013-10-08 09:00:00,
2013-10-08 02:53:00,49.0,44.0,-100.00,NW,312,3.0,5.0,82,-99.99,,,0.00,0.120000,,2013-10-08 09:53:00,
2013-10-08 03:00:00,49.0,46.0,-100.00,North,354,2.0,4.0,86,-99.99,,,0.00,0.120000,,2013-10-08 10:00:00,
2013-10-08 03:42:00,49.0,46.0,-100.00,North,354,2.0,4.0,86,-99.99,,,0.00,0.120000,,2013-10-08 10:42:00,
2013-10-08 03:53:00,49.0,46.0,-100.00,North,354,2.0,4.0,86,-99.99,,,0.00,0.120000,,2013-10-08 10:53:00,
2013-10-08 04:00:00,49.0,45.0,-100.00,NNW,333,1.0,5.0,86,-99.99,,,0.00,0.120000,,2013-10-08 11:00:00,
2013-10-08 04:42:00,49.0,45.0,-100.00,NNW,333,1.0,5.0,86,-99.99,,,0.00,0.120000,,2013-10-08 11:42:00,
2013-10-08 04:52:00,49.0,45.0,-100.00,NNW,333,1.0,5.0,86,-99.99,,,0.00,0.120000,,2013-10-08 11:52:00,
2013-10-08 05:00:00,50.0,45.0,-100.00,West,277,3.0,7.0,81,-99.99,,,0.00,0.120000,,2013-10-08 12:00:00,
2013-10-08 05:42:00,50.0,45.0,-100.00,West,277,3.0,7.0,81,-99.99,,,0.00,0.120000,,2013-10-08 12:42:00,
2013-10-08 05:52:00,50.0,45.0,-100.00,West,277,3.0,7.0,81,-99.99,,,0.00,0.120000,,2013-10-08 12:52:00,
2013-10-08 06:00:00,50.0,45.0,-100.00,NW,325,2.0,6.0,81,-99.99,,,0.00,0.000000,,2013-10-08 13:00:00,
2013-10-08 06:52:00,50.0,45.0,-100.00,NW,325,2.0,6.0,81,-99.99,,,0.00,0.000000,,2013-10-08 13:52:00,
2013-10-08 07:00:00,51.0,45.0,-100.00,North,349,3.0,6.0,80,-99.99,,,0.00,0.120000,,2013-10-08 14:00:00,
2013-10-08 07:42:00,51.0,45.0,-100.00,North,349,3.0,6.0,80,-99.99,,,0.00,0.120000,,2013-10-08 14:42:00,
2013-10-08 07:52:00,51.0,45.0,-100.00,North,349,3.0,6.0,80,-99.99,,,0.00,0.120000,,2013-10-08 14:52:00,
2013-10-08 08:00:00,51.0,44.0,-100.00,WNW,299,2.0,6.0,77,-99.99,,,0.00,5.350000,,2013-10-08 15:00:00,
2013-10-08 08:44:00,51.0,44.0,-100.00,WNW,299,2.0,6.0,77,-99.99,,,0.00,5.350000,,2013-10-08 15:44:00,
2013-10-08 08:53:00,51.0,44.0,-100.00,WNW,299,2.0,6.0,77,-99.99,,,0.00,5.350000,,2013-10-08 15:53:00,
2013-10-08 09:00:00,52.0,45.0,-100.00,NW,307,3.0,9.0,78,-99.99,,,0.00,76.940002,,2013-10-08 16:00:00,
2013-10-08 09:42:00,52.0,45.0,-100.00,NW,307,3.0,9.0,78,-99.99,,,0.00,76.940002,,2013-10-08 16:42:00,
2013-10-08 09:53:00,52.0,45.0,-100.00,NW,307,3.0,9.0,78,-99.99,,,0.00,76.940002,,2013-10-08 16:53:00,
2013-10-08 10:00:00,53.0,44.0,-100.00,WNW,302,3.0,6.0,73,-99.99,,,0.00,56.020000,,2013-10-08 17:00:00,
2013-10-08 10:52:00,53.0,44.0,-100.00,WNW,302,3.0,6.0,73,-99.99,,,0.00,56.020000,,2013-10-08 17:52:00,
2013-10-08 11:00:00,53.0,45.0,-100.00,NNW,347,5.0,10.0,73,-99.99,,,0.00,72.870003,,2013-10-08 18:00:00,
2013-10-08 11:42:00,53.0,45.0,-100.00,NNW,347,5.0,10.0,73,-99.99,,,0.00,72.870003,,2013-10-08 18:42:00,
2013-10-08 11:53:00,53.0,45.0,-100.00,NNW,347,5.0,10.0,73,-99.99,,,0.00,72.870003,,2013-10-08 18:53:00,
2013-10-08 12:00:00,54.0,47.0,-100.00,WNW,296,3.0,7.0,78,-99.99,,,0.00,166.309998,,2013-10-08 19:00:00,
2013-10-08 12:42:00,54.0,47.0,-100.00,WNW,296,3.0,7.0,78,-99.99,,,0.00,166.309998,,2013-10-08 19:42:00,
2013-10-08 12:52:00,54.0,47.0,-100.00,WNW,296,3.0,7.0,78,-99.99,,,0.00,166.309998,,2013-10-08 19:52:00,
2013-10-08 13:00:00,53.0,43.0,-100.00,SW,229,3.0,8.0,70,-99.99,,,0.00,117.500000,,2013-10-08 20:00:00,
2013-10-08 13:42:00,53.0,43.0,-100.00,SW,229,3.0,8.0,70,-99.99,,,0.00,117.500000,,2013-10-08 20:42:00,
2013-10-08 13:52:00,53.0,43.0,-100.00,SW,229,3.0,8.0,70,-99.99,,,0.00,117.500000,,2013-10-08 20:52:00,
2013-10-08 14:00:00,51.0,45.0,-100.00,SE,129,1.0,5.0,78,-99.99,,,0.00,50.320000,,2013-10-08 21:00:00,
2013-10-08 14:44:00,51.0,45.0,-100.00,SE,129,1.0,5.0,78,-99.99,,,0.00,50.320000,,2013-10-08 21:44:00,
2013-10-08 14:54:00,51.0,45.0,-100.00,SE,129,1.0,5.0,78,-99.99,,,0.00,50.320000,,2013-10-08 21:54:00,
2013-10-08 15:00:00,52.0,43.0,-100.00,NW,319,4.0,11.0,69,-99.99,,,0.00,155.389999,,2013-10-08 22:00:00,
2013-10-08 15:45:00,52.0,43.0,-100.00,NW,319,4.0,11.0,69,-99.99,,,0.00,155.389999,,2013-10-08 22:45:00,
2013-10-08 15:57:00,52.0,43.0,-100.00,NW,319,4.0,11.0,69,-99.99,,,0.00,155.389999,,2013-10-08 22:57:00,
2013-10-08 16:00:00,51.0,45.0,-100.00,NE,42,3.0,6.0,79,-99.99,,,0.00,143.070007,,2013-10-08 23:00:00,
2013-10-08 16:52:00,51.0,45.0,-100.00,NE,42,3.0,6.0,79,-99.99,,,0.00,143.070007,,2013-10-08 23:52:00,
2013-10-08 17:00:00,53.0,44.0,-100.00,WNW,283,3.0,8.0,69,-99.99,,,0.00,117.610001,,2013-10-09 00:00:00,
2013-10-08 17:52:00,53.0,44.0,-100.00,WNW,283,3.0,8.0,69,-99.99,,,0.00,117.610001,,2013-10-09 00:52:00,
2013-10-08 18:00:00,51.0,45.0,-100.00,NW,318,2.0,4.0,80,-99.99,,,0.00,10.920000,,2013-10-09 01:00:00,
2013-10-08 18:43:00,51.0,45.0,-100.00,NW,318,2.0,4.0,80,-99.99,,,0.00,10.920000,,2013-10-09 01:43:00,
2013-10-08 18:52:00,51.0,45.0,-100.00,NW,318,2.0,4.0,80,-99.99,,,0.00,10.920000,,2013-10-09 01:52:00,
2013-10-08 19:00:00,48.0,43.0,-100.00,South,171,3.0,6.0,83,-99.99,,,0.00,0.230000,,2013-10-09 02:00:00,
2013-10-08 19:42:00,48.0,43.0,-100.00,South,171,3.0,6.0,83,-99.99,,,0.00,0.230000,,2013-10-09 02:42:00,
2013-10-08 19:52:00,48.0,43.0,-100.00,South,171,3.0,6.0,83,-99.99,,,0.00,0.230000,,2013-10-09 02:52:00,
2013-10-08 20:00:00,43.0,40.0,-100.00,SE,145,1.0,3.0,91,-99.99,,,0.00,0.120000,,2013-10-09 03:00:00,
2013-10-08 20:44:00,43.0,40.0,-100.00,SE,145,1.0,3.0,91,-99.99,,,0.00,0.120000,,2013-10-09 03:44:00,
2013-10-08 20:54:00,43.0,40.0,-100.00,SE,145,1.0,3.0,91,-99.99,,,0.00,0.120000,,2013-10-09 03:54:00,
2013-10-08 21:00:00,41.0,40.0,-100.00,SSE,149,2.0,4.0,95,-99.99,,,0.00,0.120000,,2013-10-09 04:00:00,
2013-10-08 21:44:00,41.0,40.0,-100.00,SSE,149,2.0,4.0,95,-99.99,,,0.00,0.120000,,2013-10-09 04:44:00,
2013-10-08 21:54:00,41.0,40.0,-100.00,SSE,149,2.0,4.0,95,-99.99,,,0.00,0.120000,,2013-10-09 04:54:00,
2013-10-08 22:00:00,39.0,38.0,-100.00,SW,218,0.0,2.0,96,-99.99,,,0.00,0.120000,,2013-10-09 05:00:00,
2013-10-08 22:42:00,39.0,38.0,-100.00,SW,218,0.0,2.0,96,-99.99,,,0.00,0.120000,,2013-10-09 05:42:00,
2013-10-08 22:52:00,39.0,38.0,-100.00,SW,218,0.0,2.0,96,-99.99,,,0.00,0.120000,,2013-10-09 05:52:00,
2013-10-08 23:00:00,41.0,40.0,-100.00,SSE,162,1.0,3.0,96,-99.99,,,0.00,0.120000,,2013-10-09 06:00:00,
2013-10-08 23:42:00,41.0,40.0,-100.00,SSE,162,1.0,3.0,96,-99.99,,,0.00,0.120000,,2013-10-09 06:42:00,
2013-10-08 23:52:00,41.0,40.0,-100.00,SSE,162,1.0,3.0,96,-99.99,,,0.00,0.120000,,2013-10-09 06:52:00,